Time;durP1;ratioP1;P1;durP2;ratioP2;P2;SDS_P1;SDS_P2;PMS_P1;PMS_P2;Temp;Humidity;BMP_temperature;BMP_pressure;BME280_temperature;BME280_humidity;BME280_pressure;Samples;Min_cycle;Max_cycle;Signal;HPM_P1;HPM_P2
2024/01/02 00:01:04;;;;;;;22.58;16.17;;;13.80;99.90;;;;;;4594692;19;20033;-79
2024/01/02 00:02:46;;;;;;;;;;;13.80;99.90;;;;;;4593938;19;20011;-79
2024/01/02 00:04:21;;;;;;;23.30;16.30;;;13.80;99.90;;;;;;4594073;19;19915;-79
2024/01/02 00:05:57;;;;;;;24.93;16.83;;;13.80;99.90;;;;;;4593430;19;20021;-79
2024/01/02 00:07:31;;;;;;;21.52;14.43;;;13.80;99.90;;;;;;4594271;19;20002;-80
2024/01/02 00:09:06;;;;;;;22.92;15.10;;;13.80;99.90;;;;;;4592826;19;20446;-79
2024/01/02 00:10:42;;;;;;;22.27;16.30;;;13.80;99.90;;;;;;4594033;19;19999;-80
2024/01/02 00:12:16;;;;;;;21.05;14.25;;;13.80;99.90;;;;;;4594478;19;20333;-79
2024/01/02 00:13:50;;;;;;;20.57;14.50;;;13.80;99.90;;;;;;4594408;19;20007;-80
2024/01/02 00:15:26;;;;;;;23.98;15.48;;;13.80;99.90;;;;;;4593985;19;20301;-80
2024/01/02 00:17:00;;;;;;;25.35;15.88;;;13.80;99.90;;;;;;4594062;19;20026;-80
2024/01/02 00:18:34;;;;;;;24.48;14.60;;;13.80;99.90;;;;;;4593226;19;20003;-80
2024/01/02 00:20:13;;;;;;;21.75;15.05;;;13.80;99.90;;;;;;4592740;19;20019;-80
2024/01/02 00:21:47;;;;;;;25.73;16.25;;;13.80;99.90;;;;;;4593752;19;20007;-80
2024/01/02 00:23:21;;;;;;;23.07;14.30;;;13.80;99.90;;;;;;4593960;19;20027;-80
2024/01/02 00:24:57;;;;;;;23.48;14.30;;;13.80;99.90;;;;;;4594292;19;20480;-79
2024/01/02 00:26:31;;;;;;;21.20;13.77;;;13.80;99.90;;;;;;4592806;19;20024;-80
2024/01/02 00:28:06;;;;;;;24.60;15.05;;;13.80;99.90;;;;;;4592591;19;20020;-80
2024/01/02 00:29:43;;;;;;;22.20;14.73;;;13.80;99.90;;;;;;4593607;19;20011;-80
2024/01/02 00:31:18;;;;;;;24.38;15.73;;;13.80;99.90;;;;;;4593800;19;20430;-80
2024/01/02 00:32:52;;;;;;;21.52;14.82;;;13.80;99.90;;;;;;4593787;19;20003;-80
2024/01/02 00:34:29;;;;;;;22.38;14.80;;;13.80;99.90;;;;;;4593697;19;20025;-79
2024/01/02 00:36:03;;;;;;;24.48;15.15;;;13.80;99.90;;;;;;4592772;19;20026;-80
2024/01/02 00:37:39;;;;;;;18.17;12.07;;;13.80;99.90;;;;;;4593931;19;20002;-80
2024/01/02 00:39:14;;;;;;;21.23;13.17;;;13.80;99.90;;;;;;4592647;19;20010;-80
2024/01/02 00:40:50;;;;;;;22.03;14.23;;;13.80;99.90;;;;;;4593864;19;20003;-80
2024/01/02 00:42:24;;;;;;;20.77;13.63;;;13.80;99.90;;;;;;4591527;19;20007;-80
2024/01/02 00:44:00;;;;;;;20.13;12.18;;;13.80;99.90;;;;;;4593805;19;20422;-80
2024/01/02 00:45:34;;;;;;;21.60;13.05;;;13.80;99.90;;;;;;4593203;19;20323;-80
2024/01/02 00:47:10;;;;;;;18.88;12.60;;;13.80;99.90;;;;;;4593435;19;20005;-79
2024/01/02 00:48:45;;;;;;;19.00;11.63;;;13.80;99.90;;;;;;4593732;19;20006;-79
2024/01/02 00:50:20;;;;;;;22.33;12.90;;;13.80;99.90;;;;;;4593681;19;20003;-79
2024/01/02 00:51:54;;;;;;;20.27;12.27;;;13.80;99.90;;;;;;4593348;19;20013;-80
2024/01/02 00:53:29;;;;;;;19.30;12.57;;;13.80;99.90;;;;;;4593293;19;20006;-80
2024/01/02 00:55:05;;;;;;;21.17;14.35;;;13.80;99.90;;;;;;4593222;19;19999;-80
2024/01/02 00:56:39;;;;;;;21.52;11.90;;;13.80;99.90;;;;;;4592021;19;20006;-80
2024/01/02 00:58:16;;;;;;;16.98;12.23;;;13.80;99.90;;;;;;4592479;19;20003;-80
2024/01/02 00:59:50;;;;;;;19.58;13.77;;;13.80;99.90;;;;;;4593088;19;20077;-80
2024/01/02 01:14:57;;;;;;;20.33;11.13;;;13.80;99.90;;;;;;4567057;19;20017;-81
2024/01/02 01:16:32;;;;;;;21.50;12.73;;;13.80;99.90;;;;;;4592692;19;20009;-81
2024/01/02 01:18:06;;;;;;;16.35;10.90;;;13.80;99.90;;;;;;4592617;19;19999;-81
2024/01/02 01:19:45;;;;;;;17.60;10.60;;;13.80;99.90;;;;;;4593128;19;20013;-81
2024/01/02 01:21:21;;;;;;;17.63;11.35;;;13.80;99.90;;;;;;4593123;19;20477;-81
2024/01/02 01:22:55;;;;;;;16.73;10.73;;;13.80;99.90;;;;;;4592714;19;20320;-81
2024/01/02 01:24:29;;;;;;;16.23;10.55;;;13.80;99.90;;;;;;4592374;19;20030;-81
2024/01/02 01:26:05;;;;;;;15.52;9.77;;;13.80;99.90;;;;;;4593166;19;20073;-81
2024/01/02 01:27:39;;;;;;;16.30;10.25;;;13.80;99.90;;;;;;4592660;19;20002;-81
2024/01/02 01:29:13;;;;;;;17.08;9.90;;;13.80;99.90;;;;;;4592608;19;20002;-81
2024/01/02 01:30:48;;;;;;;19.35;11.30;;;13.80;99.90;;;;;;4593065;19;20011;-81
2024/01/02 01:32:22;;;;;;;14.82;9.77;;;13.80;99.90;;;;;;4592555;19;20016;-81
2024/01/02 01:33:56;;;;;;;15.55;9.82;;;13.80;99.90;;;;;;4592552;19;20313;-81
2024/01/02 01:35:33;;;;;;;16.95;10.30;;;13.80;99.90;;;;;;4592226;19;20413;-81
2024/01/02 01:37:07;;;;;;;18.45;9.88;;;13.80;99.90;;;;;;4592746;19;20425;-81
2024/01/02 01:38:41;;;;;;;16.10;10.10;;;13.80;99.90;;;;;;4591714;19;20014;-81
2024/01/02 01:40:16;;;;;;;17.50;10.93;;;13.80;99.90;;;;;;4592417;19;20030;-81
2024/01/02 01:41:50;;;;;;;13.45;8.98;;;13.80;99.90;;;;;;4591097;19;20041;-81
2024/01/02 01:43:24;;;;;;;17.55;10.75;;;13.80;99.90;;;;;;4591950;19;20002;-81
2024/01/02 01:45:00;;;;;;;15.27;10.52;;;13.80;99.90;;;;;;4591727;19;20014;-81
2024/01/02 01:46:36;;;;;;;27.47;16.83;;;13.80;99.90;;;;;;4592318;19;20010;-81
2024/01/02 01:48:10;;;;;;;24.98;15.05;;;13.80;99.90;;;;;;4591298;19;20013;-81
2024/01/02 01:49:45;;;;;;;26.85;15.07;;;13.80;99.90;;;;;;4591947;19;20036;-81
2024/01/02 01:51:19;;;;;;;27.70;13.98;;;13.80;99.90;;;;;;4591171;19;20161;-81
2024/01/02 01:52:53;;;;;;;35.13;18.67;;;13.80;99.90;;;;;;4591805;19;20426;-81
2024/01/02 01:54:28;;;;;;;26.92;14.63;;;13.80;99.90;;;;;;4592190;19;20339;-81
2024/01/02 01:56:03;;;;;;;19.13;11.73;;;13.80;99.90;;;;;;4592212;19;20003;-81
2024/01/02 01:57:37;;;;;;;17.45;10.43;;;13.80;99.90;;;;;;4592069;19;20310;-81
2024/01/02 01:59:15;;;;;;;16.83;10.20;;;13.80;99.90;;;;;;4589847;19;20007;-81
2024/01/02 02:00:49;;;;;;;16.17;9.63;;;13.80;99.90;;;;;;4590649;19;20048;-81
2024/01/02 02:02:23;;;;;;;17.47;9.73;;;13.80;99.90;;;;;;4591634;19;20007;-81
2024/01/02 02:03:59;;;;;;;22.02;11.40;;;13.80;99.90;;;;;;4592050;19;20010;-81
2024/01/02 02:05:33;;;;;;;19.25;10.55;;;13.80;99.90;;;;;;4589629;19;20485;-81
2024/01/02 02:07:07;;;;;;;18.05;10.82;;;13.80;99.90;;;;;;4590849;19;20422;-81
2024/01/02 02:08:43;;;;;;;14.38;9.38;;;13.80;99.90;;;;;;4590644;19;20011;-81
2024/01/02 02:10:18;;;;;;;16.60;10.00;;;13.80;99.90;;;;;;4591808;19;20005;-81
2024/01/02 02:11:53;;;;;;;13.15;8.82;;;13.80;99.90;;;;;;4591870;19;20003;-81
2024/01/02 02:13:28;;;;;;;13.57;9.25;;;13.80;99.90;;;;;;4592152;19;20010;-81
2024/01/02 02:15:03;;;;;;;14.73;9.77;;;13.80;99.90;;;;;;4590795;19;20015;-81
2024/01/02 02:16:37;;;;;;;14.90;9.47;;;13.80;99.90;;;;;;4591720;19;20426;-81
2024/01/02 02:18:13;;;;;;;13.30;8.23;;;13.80;99.90;;;;;;4591754;19;20034;-81
2024/01/02 02:19:48;;;;;;;14.93;7.93;;;13.80;99.90;;;;;;4591738;19;20497;-81
2024/01/02 02:21:23;;;;;;;14.07;8.70;;;13.80;99.90;;;;;;4591963;19;20066;-81
2024/01/02 02:22:59;;;;;;;15.77;8.53;;;13.80;99.90;;;;;;4591771;19;20015;-81
2024/01/02 02:24:32;;;;;;;11.77;7.70;;;13.80;99.90;;;;;;4591296;19;20006;-81
2024/01/02 02:26:07;;;;;;;14.52;8.27;;;13.80;99.90;;;;;;4591900;19;20003;-81
2024/01/02 02:27:42;;;;;;;12.90;7.57;;;13.80;99.90;;;;;;4592136;19;20074;-81
2024/01/02 02:29:16;;;;;;;11.50;8.43;;;13.80;99.90;;;;;;4591609;19;20002;-81
2024/01/02 02:30:50;;;;;;;13.57;8.03;;;13.80;99.90;;;;;;4591562;19;19998;-81
2024/01/02 02:32:25;;;;;;;12.43;6.65;;;13.80;99.90;;;;;;4591577;19;19998;-81
2024/01/02 02:33:59;;;;;;;11.88;6.85;;;13.70;99.90;;;;;;4591277;19;20014;-81
2024/01/02 02:35:33;;;;;;;10.27;6.68;;;13.80;99.90;;;;;;4590517;19;20034;-81
2024/01/02 02:37:09;;;;;;;10.97;6.77;;;13.80;99.90;;;;;;4591752;19;20021;-81
2024/01/02 02:38:43;;;;;;;10.53;6.73;;;13.80;99.90;;;;;;4590839;19;20003;-81
2024/01/02 02:40:17;;;;;;;10.03;6.13;;;13.80;99.90;;;;;;4590115;19;20464;-81
2024/01/02 02:41:53;;;;;;;11.55;6.43;;;13.80;99.90;;;;;;4591767;19;20023;-81
2024/01/02 02:43:27;;;;;;;11.52;6.82;;;13.80;99.90;;;;;;4590298;19;20324;-81
2024/01/02 02:45:01;;;;;;;10.90;6.07;;;13.70;99.90;;;;;;4590150;19;20070;-81
2024/01/02 02:46:37;;;;;;;10.57;5.40;;;13.70;99.90;;;;;;4591422;19;20011;-80
2024/01/02 02:48:11;;;;;;;10.77;6.53;;;13.70;99.90;;;;;;4589960;19;20330;-81
2024/01/02 02:49:44;;;;;;;8.37;5.03;;;13.80;99.90;;;;;;4590909;19;20061;-81
2024/01/02 02:51:20;;;;;;;11.70;6.33;;;13.80;99.90;;;;;;4591968;19;20443;-81
2024/01/02 02:52:54;;;;;;;9.82;5.68;;;13.80;99.90;;;;;;4591221;19;20003;-81
2024/01/02 02:54:28;;;;;;;8.45;5.10;;;13.80;99.90;;;;;;4590800;19;20323;-81
2024/01/02 02:56:03;;;;;;;9.23;5.87;;;13.80;99.90;;;;;;4591243;19;20010;-81
2024/01/02 02:57:38;;;;;;;10.40;5.85;;;13.70;99.90;;;;;;4590093;19;20461;-80
2024/01/02 02:59:12;;;;;;;8.77;5.40;;;13.70;99.90;;;;;;4589572;19;20003;-81
2024/01/02 03:00:48;;;;;;;9.20;5.07;;;13.80;99.90;;;;;;4589792;19;20006;-80
2024/01/02 03:02:22;;;;;;;9.25;6.13;;;13.70;99.90;;;;;;4591004;19;20299;-81
2024/01/02 03:03:56;;;;;;;9.93;5.17;;;13.80;99.90;;;;;;4591042;19;20026;-80
2024/01/02 03:05:31;;;;;;;9.57;5.37;;;13.80;99.90;;;;;;4589840;19;20010;-80
2024/01/02 03:07:08;;;;;;;8.90;4.77;;;13.70;99.90;;;;;;4594346;19;20010;-80
2024/01/02 03:08:42;;;;;;;8.70;5.13;;;13.80;99.90;;;;;;4594225;19;20006;-81
2024/01/02 03:10:18;;;;;;;9.68;5.60;;;13.80;99.90;;;;;;4595210;19;20010;-80
2024/01/02 03:11:52;;;;;;;8.75;5.65;;;13.70;99.90;;;;;;4595473;19;20002;-80
2024/01/02 03:13:26;;;;;;;7.85;4.68;;;13.70;99.90;;;;;;4595482;19;20006;-80
2024/01/02 03:15:01;;;;;;;10.07;5.80;;;13.80;99.90;;;;;;4592810;19;20048;-80
2024/01/02 03:16:35;;;;;;;9.77;5.23;;;13.80;99.90;;;;;;4593830;19;20010;-80
2024/01/02 03:18:09;;;;;;;9.80;6.38;;;13.70;99.90;;;;;;4594572;19;20006;-80
2024/01/02 03:19:46;;;;;;;11.82;7.63;;;13.80;99.90;;;;;;4595362;19;20007;-81
2024/01/02 03:21:27;;;;;;;10.65;6.97;;;13.80;99.90;;;;;;4595252;19;20489;-80
2024/01/02 03:23:01;;;;;;;13.55;7.18;;;13.70;99.90;;;;;;4595378;19;19998;-81
2024/01/02 03:24:36;;;;;;;17.13;6.75;;;13.70;99.90;;;;;;4594701;19;20006;-81
2024/01/02 03:26:11;;;;;;;11.93;6.20;;;13.70;99.90;;;;;;4595133;19;20080;-80
2024/01/02 03:27:45;;;;;;;12.30;6.15;;;13.80;99.90;;;;;;4595160;19;20006;-81
2024/01/02 03:29:21;;;;;;;8.55;5.47;;;13.70;99.90;;;;;;4595086;19;20014;-81
2024/01/02 03:30:55;;;;;;;9.25;5.53;;;13.80;99.90;;;;;;4595292;19;20444;-81
2024/01/02 03:32:29;;;;;;;10.35;5.70;;;13.70;99.90;;;;;;4594999;19;20002;-81
2024/01/02 03:34:06;;;;;;;10.43;6.10;;;13.70;99.90;;;;;;4595096;19;20006;-80
2024/01/02 03:35:40;;;;;;;7.53;4.82;;;13.80;99.90;;;;;;4593675;19;20018;-80
2024/01/02 03:37:14;;;;;;;9.70;5.43;;;13.80;99.90;;;;;;4594986;19;19995;-81
2024/01/02 03:38:50;;;;;;;10.05;6.13;;;13.80;99.90;;;;;;4594288;19;20007;-81
2024/01/02 03:40:24;;;;;;;8.02;4.63;;;13.80;99.90;;;;;;4594812;19;20002;-80
2024/01/02 03:41:58;;;;;;;9.60;5.15;;;13.80;99.90;;;;;;4594825;19;20430;-81
2024/01/02 03:43:33;;;;;;;8.00;5.03;;;13.80;99.90;;;;;;4594848;19;20014;-80
2024/01/02 03:45:08;;;;;;;10.27;5.50;;;13.70;99.90;;;;;;4594029;19;20439;-81
2024/01/02 03:46:42;;;;;;;11.35;5.90;;;13.70;99.90;;;;;;4594707;19;20003;-81
2024/01/02 03:48:17;;;;;;;10.40;5.70;;;13.70;99.90;;;;;;4593888;19;20011;-80
2024/01/02 03:49:51;;;;;;;9.40;5.68;;;13.70;99.90;;;;;;4594594;19;20032;-81
2024/01/02 03:51:25;;;;;;;12.35;5.72;;;13.70;99.90;;;;;;4593317;19;20009;-80
2024/01/02 03:53:00;;;;;;;11.10;5.70;;;13.70;99.90;;;;;;4594343;19;20011;-81
2024/01/02 03:54:34;;;;;;;11.38;5.80;;;13.70;99.90;;;;;;4594366;19;20298;-80
2024/01/02 03:56:08;;;;;;;7.93;5.32;;;13.80;99.90;;;;;;4593221;19;20003;-81
2024/01/02 03:57:44;;;;;;;9.17;5.80;;;13.80;99.90;;;;;;4593263;19;20006;-81
2024/01/02 03:59:18;;;;;;;9.52;5.38;;;13.70;99.90;;;;;;4592804;19;20078;-80
2024/01/02 04:00:55;;;;;;;7.68;4.82;;;13.70;99.90;;;;;;4593552;19;20041;-81
2024/01/02 04:02:30;;;;;;;11.60;6.07;;;13.70;99.90;;;;;;4594155;19;20038;-80
2024/01/02 04:04:05;;;;;;;8.27;5.43;;;13.70;99.90;;;;;;4594314;19;20450;-80
2024/01/02 04:05:38;;;;;;;9.90;5.40;;;13.70;99.90;;;;;;4592952;19;20002;-81
2024/01/02 04:07:14;;;;;;;8.43;5.70;;;13.70;99.90;;;;;;4594303;19;20016;-80
2024/01/02 04:08:50;;;;;;;11.37;6.83;;;13.70;99.90;;;;;;4594246;19;20431;-81
2024/01/02 04:10:24;;;;;;;12.87;7.33;;;13.80;99.90;;;;;;4593186;19;20334;-81
2024/01/02 04:12:01;;;;;;;13.33;7.53;;;13.70;99.90;;;;;;4594021;19;20333;-80
2024/01/02 04:13:35;;;;;;;11.60;7.20;;;13.70;99.90;;;;;;4594172;19;20019;-81
2024/01/02 04:15:09;;;;;;;10.93;6.60;;;13.70;99.90;;;;;;4593179;19;20332;-80
2024/01/02 04:16:45;;;;;;;10.77;7.57;;;13.70;99.90;;;;;;4592825;19;20380;-81
2024/01/02 04:18:19;;;;;;;12.00;8.27;;;13.70;99.90;;;;;;4593336;19;20314;-81
2024/01/02 04:19:53;;;;;;;12.70;7.70;;;13.70;99.90;;;;;;4593987;19;19998;-81
2024/01/02 04:21:28;;;;;;;14.43;8.60;;;13.70;99.90;;;;;;4594001;19;20430;-80
2024/01/02 04:23:02;;;;;;;10.60;9.17;;;13.70;99.90;;;;;;4594207;19;20003;-81
2024/01/02 04:24:37;;;;;;;12.00;9.93;;;13.70;99.90;;;;;;4593566;19;20003;-81
2024/01/02 04:26:12;;;;;;;13.43;9.90;;;13.70;99.90;;;;;;4594479;19;20290;-81
2024/01/02 04:27:47;;;;;;;11.60;8.40;;;13.70;99.90;;;;;;4593884;19;20066;-81
2024/01/02 04:29:21;;;;;;;12.50;7.97;;;13.70;99.90;;;;;;4593867;19;20003;-80
2024/01/02 04:30:56;;;;;;;11.13;7.73;;;13.70;99.90;;;;;;4593731;19;20007;-81
2024/01/02 04:32:30;;;;;;;13.43;8.33;;;13.80;99.90;;;;;;4594045;19;20422;-81
2024/01/02 04:34:04;;;;;;;10.97;7.67;;;13.70;99.90;;;;;;4592443;19;20457;-81
2024/01/02 04:35:40;;;;;;;17.77;11.40;;;13.70;99.90;;;;;;4592200;19;20002;-81
2024/01/02 04:37:16;;;;;;;16.83;10.50;;;13.70;99.90;;;;;;4593652;19;20002;-80
2024/01/02 04:38:51;;;;;;;14.77;8.93;;;13.70;99.90;;;;;;4591876;19;19998;-80
2024/01/02 04:40:26;;;;;;;12.77;7.57;;;13.70;99.90;;;;;;4593608;19;20302;-81
2024/01/02 04:42:01;;;;;;;12.80;7.97;;;13.70;99.90;;;;;;4593604;19;19999;-80
2024/01/02 04:43:35;;;;;;;13.60;7.40;;;13.70;99.90;;;;;;4592262;19;19999;-80
2024/01/02 04:45:11;;;;;;;16.37;9.97;;;13.70;99.90;;;;;;4592273;19;20007;-81
2024/01/02 04:46:45;;;;;;;10.80;7.63;;;13.70;99.90;;;;;;4593466;19;20002;-81
2024/01/02 04:48:19;;;;;;;14.47;8.70;;;13.70;99.90;;;;;;4593405;19;20006;-81
2024/01/02 04:49:55;;;;;;;13.27;8.67;;;13.70;99.90;;;;;;4592082;19;20362;-81
2024/01/02 04:51:31;;;;;;;15.37;8.37;;;13.70;99.90;;;;;;4593200;19;20019;-83
2024/01/02 04:53:06;;;;;;;12.63;7.73;;;13.70;99.90;;;;;;4593517;19;20441;-83
2024/01/02 04:54:41;;;;;;;11.33;7.60;;;13.70;99.90;;;;;;4592909;19;20010;-83
2024/01/02 04:56:15;;;;;;;11.60;7.63;;;13.70;99.90;;;;;;4593758;19;19998;-82
2024/01/02 04:57:49;;;;;;;12.37;7.60;;;13.70;99.90;;;;;;4593630;19;20002;-83
2024/01/02 04:59:24;;;;;;;14.53;8.37;;;13.70;99.90;;;;;;4592295;19;20002;-82
2024/01/02 05:00:58;;;;;;;12.50;8.37;;;13.70;99.90;;;;;;4591814;19;20014;-82
2024/01/02 05:02:32;;;;;;;14.30;9.53;;;13.70;99.90;;;;;;4593123;19;20013;-83
2024/01/02 05:04:07;;;;;;;12.73;9.00;;;13.70;99.90;;;;;;4593215;19;20018;-81
2024/01/02 05:05:42;;;;;;;11.33;7.97;;;13.70;99.90;;;;;;4592196;19;20002;-81
2024/01/02 05:07:16;;;;;;;13.00;7.80;;;13.70;99.90;;;;;;4593073;19;20003;-81
2024/01/02 05:08:53;;;;;;;11.70;7.87;;;13.70;99.90;;;;;;4591862;19;20396;-80
2024/01/02 05:10:27;;;;;;;11.37;7.63;;;13.70;99.90;;;;;;4592959;19;20434;-81
2024/01/02 05:12:01;;;;;;;13.83;8.50;;;13.70;99.90;;;;;;4593011;19;20002;-81
2024/01/02 05:13:38;;;;;;;12.23;7.97;;;13.70;99.90;;;;;;4593263;19;20003;-81
2024/01/02 05:15:12;;;;;;;13.13;7.50;;;13.70;99.90;;;;;;4590949;19;20429;-81
2024/01/02 05:16:47;;;;;;;11.30;7.70;;;13.70;99.90;;;;;;4592521;19;20013;-80
2024/01/02 05:18:22;;;;;;;12.10;8.27;;;13.70;99.90;;;;;;4591566;19;20313;-80
2024/01/02 05:19:56;;;;;;;12.47;8.30;;;13.70;99.90;;;;;;4592737;19;20446;-81
2024/01/02 05:21:31;;;;;;;12.70;8.60;;;13.70;99.90;;;;;;4592801;19;20009;-81
2024/01/02 05:23:07;;;;;;;14.33;7.87;;;13.70;99.90;;;;;;4593072;19;20010;-81
2024/01/02 05:24:41;;;;;;;20.13;13.30;;;13.70;99.90;;;;;;4592389;19;20026;-81
2024/01/02 05:26:15;;;;;;;16.33;8.60;;;13.70;99.90;;;;;;4592659;19;19999;-81
2024/01/02 05:27:50;;;;;;;20.67;12.67;;;13.70;99.90;;;;;;4592440;19;20010;-80
2024/01/02 05:29:24;;;;;;;20.90;13.27;;;13.70;99.90;;;;;;4590738;19;20007;-80
2024/01/02 05:30:58;;;;;;;13.63;10.77;;;13.70;99.90;;;;;;4592261;19;19999;-81
2024/01/02 05:32:36;;;;;;;15.27;11.00;;;13.70;99.90;;;;;;4593070;19;20017;-81
2024/01/02 05:34:10;;;;;;;11.30;8.50;;;13.70;99.90;;;;;;4592585;19;20002;-80
2024/01/02 05:35:44;;;;;;;16.30;8.67;;;13.70;99.90;;;;;;4592793;19;20018;-81
2024/01/02 05:37:19;;;;;;;12.43;8.73;;;13.70;99.90;;;;;;4592860;19;20275;-81
2024/01/02 05:38:53;;;;;;;15.17;8.07;;;13.70;99.90;;;;;;4590478;19;20002;-81
2024/01/02 05:40:27;;;;;;;14.27;9.03;;;13.70;99.90;;;;;;4592104;19;20040;-81
2024/01/02 05:42:02;;;;;;;15.07;9.70;;;13.70;99.90;;;;;;4591446;19;20006;-81
2024/01/02 05:43:37;;;;;;;15.17;10.50;;;13.70;99.90;;;;;;4592306;19;20006;-81
2024/01/02 05:45:11;;;;;;;12.97;9.07;;;13.70;99.90;;;;;;4590512;19;20010;-80
2024/01/02 05:46:47;;;;;;;16.00;8.83;;;13.70;99.90;;;;;;4592092;19;20315;-81
2024/01/02 05:48:21;;;;;;;16.07;8.60;;;13.70;99.90;;;;;;4592286;19;19998;-81
2024/01/02 05:49:55;;;;;;;16.70;9.63;;;13.70;99.90;;;;;;4592274;19;20006;-80
2024/01/02 05:51:30;;;;;;;15.67;9.57;;;13.70;99.90;;;;;;4592692;19;20002;-86
2024/01/02 05:53:04;;;;;;;14.27;8.83;;;13.70;99.90;;;;;;4591069;19;20003;-80
2024/01/02 05:54:38;;;;;;;15.13;10.03;;;13.70;99.90;;;;;;4591359;19;20006;-80
2024/01/02 05:56:13;;;;;;;16.13;9.23;;;13.70;99.90;;;;;;4592184;19;20422;-80
2024/01/02 05:57:47;;;;;;;17.13;9.83;;;13.70;99.90;;;;;;4592116;19;20069;-79
2024/01/02 05:59:20;;;;;;;14.40;10.27;;;13.70;99.90;;;;;;4591071;19;20002;-79
2024/01/02 06:00:56;;;;;;;15.93;10.30;;;13.70;99.90;;;;;;4592096;19;20007;-79
2024/01/02 06:02:33;;;;;;;16.83;10.57;;;13.70;99.90;;;;;;4592338;19;20002;-80
2024/01/02 06:04:07;;;;;;;17.23;10.97;;;13.80;99.90;;;;;;4591988;19;20003;-79
2024/01/02 06:05:42;;;;;;;13.60;9.97;;;13.80;99.90;;;;;;4590866;19;20017;-80
2024/01/02 06:07:16;;;;;;;16.30;10.37;;;13.90;99.90;;;;;;4590632;19;20007;-79
2024/01/02 06:08:50;;;;;;;14.43;9.17;;;13.90;99.90;;;;;;4591845;19;20015;-80
2024/01/02 06:10:26;;;;;;;16.20;10.80;;;14.00;99.90;;;;;;4592224;19;20288;-82
2024/01/02 06:12:00;;;;;;;13.33;10.33;;;14.10;99.90;;;;;;4592091;19;20015;-81
2024/01/02 06:13:34;;;;;;;13.57;9.30;;;14.20;99.90;;;;;;4590493;19;20442;-80
2024/01/02 06:15:12;;;;;;;15.30;9.77;;;14.20;99.90;;;;;;4590768;19;20070;-81
2024/01/02 06:16:46;;;;;;;11.93;8.70;;;14.30;99.90;;;;;;4591834;19;20006;-82
2024/01/02 06:18:21;;;;;;;17.43;9.97;;;14.40;99.90;;;;;;4591508;19;20335;-82
2024/01/02 06:19:56;;;;;;;11.13;8.17;;;14.50;99.90;;;;;;4590749;19;20006;-82
2024/01/02 06:21:30;;;;;;;13.53;9.13;;;14.50;99.90;;;;;;4590561;19;20003;-83
2024/01/02 06:23:04;;;;;;;11.30;8.60;;;14.50;99.90;;;;;;4591131;19;19999;-81
2024/01/02 06:24:39;;;;;;;12.60;8.93;;;14.50;99.90;;;;;;4590011;19;20072;-82
2024/01/02 06:26:14;;;;;;;13.03;9.00;;;14.50;99.90;;;;;;4591100;19;20006;-81
2024/01/02 06:27:48;;;;;;;12.50;8.88;;;14.50;99.90;;;;;;4591409;19;20010;-81
2024/01/02 06:29:25;;;;;;;12.40;8.97;;;14.60;99.90;;;;;;4591458;19;20007;-80
2024/01/02 06:31:05;;;;;;;13.20;9.03;;;14.50;99.90;;;;;;4591616;19;20007;-77
2024/01/02 06:32:38;;;;;;;16.33;9.67;;;14.50;99.90;;;;;;4590118;19;20006;-81
2024/01/02 06:34:14;;;;;;;16.08;10.02;;;14.50;99.90;;;;;;4589910;19;20023;-80
2024/01/02 06:35:49;;;;;;;16.00;9.60;;;14.60;99.90;;;;;;4590963;19;20002;-80
2024/01/02 06:37:23;;;;;;;12.30;8.90;;;14.50;99.90;;;;;;4590716;19;20026;-80
2024/01/02 06:38:59;;;;;;;12.48;6.95;;;14.50;99.90;;;;;;4590189;19;20430;-79
2024/01/02 06:40:32;;;;;;;12.97;8.63;;;14.50;99.90;;;;;;4592721;19;20002;-79
2024/01/02 06:42:08;;;;;;;14.57;7.93;;;14.50;99.90;;;;;;4596336;19;20074;-79
2024/01/02 06:43:44;;;;;;;11.40;7.80;;;14.50;99.90;;;;;;4594793;19;20006;-78
2024/01/02 06:45:19;;;;;;;13.38;7.93;;;14.50;99.90;;;;;;4594350;19;20437;-85
2024/01/02 06:46:52;;;;;;;14.23;8.82;;;14.60;99.90;;;;;;4596198;19;20302;-76
2024/01/02 06:48:29;;;;;;;11.10;7.03;;;14.60;99.90;;;;;;4595014;19;20036;-78
2024/01/02 06:50:03;;;;;;;11.80;7.30;;;14.70;99.90;;;;;;4595625;19;20022;-77
2024/01/02 06:51:38;;;;;;;10.67;7.63;;;14.80;99.90;;;;;;4595927;19;20002;-80
2024/01/02 06:53:14;;;;;;;12.60;7.28;;;14.80;99.90;;;;;;4595868;19;20078;-78
2024/01/02 06:54:47;;;;;;;12.37;8.13;;;14.90;99.90;;;;;;4595003;19;20010;-79
2024/01/02 06:56:22;;;;;;;9.68;7.53;;;14.90;99.90;;;;;;4595779;19;19995;-80
2024/01/02 06:57:57;;;;;;;11.63;7.65;;;15.10;99.90;;;;;;4595845;19;20006;-80
2024/01/02 06:59:31;;;;;;;12.90;8.27;;;15.10;99.90;;;;;;4594091;19;20009;-79
2024/01/02 07:01:05;;;;;;;12.23;7.55;;;15.20;99.90;;;;;;4594414;19;20006;-78
2024/01/02 07:02:43;;;;;;;10.80;8.00;;;15.20;99.90;;;;;;4595402;19;20013;-77
2024/01/02 07:04:18;;;;;;;11.60;9.48;;;15.30;99.90;;;;;;4595394;19;20001;-77
2024/01/02 07:05:52;;;;;;;11.50;10.25;;;15.40;99.90;;;;;;4595647;19;20073;-77
2024/01/02 07:07:27;;;;;;;13.20;9.40;;;15.40;99.90;;;;;;4595624;19;20001;-77
2024/01/02 07:09:02;;;;;;;10.65;9.55;;;15.50;99.90;;;;;;4595786;19;20012;-78
2024/01/02 07:10:36;;;;;;;11.02;9.63;;;15.10;99.90;;;;;;4595462;19;20002;-78
2024/01/02 07:12:11;;;;;;;15.03;13.37;;;14.20;99.90;;;;;;4595749;19;20006;-78
2024/01/02 07:13:45;;;;;;;12.57;11.27;;;13.70;99.90;;;;;;4594129;19;20007;-78
2024/01/02 07:15:19;;;;;;;18.63;16.63;;;13.20;99.90;;;;;;4593381;19;20070;-79
2024/01/02 07:16:54;;;;;;;16.03;14.53;;;13.00;99.90;;;;;;4595450;19;20014;-79
2024/01/02 07:18:30;;;;;;;18.57;16.67;;;12.80;99.90;;;;;;4594870;19;20388;-79
2024/01/02 07:20:04;;;;;;;18.90;16.63;;;12.60;99.90;;;;;;4595262;19;20373;-79
2024/01/02 07:21:39;;;;;;;19.50;17.60;;;12.50;99.90;;;;;;4595274;19;20009;-76
2024/01/02 07:23:13;;;;;;;17.13;14.83;;;12.30;99.90;;;;;;4595053;19;20393;-76
2024/01/02 07:24:48;;;;;;;17.10;14.50;;;12.20;99.90;;;;;;4594430;19;20002;-75
2024/01/02 07:26:24;;;;;;;15.00;13.40;;;12.20;99.90;;;;;;4595135;19;20006;-78
2024/01/02 07:28:00;;;;;;;14.93;13.03;;;12.00;99.90;;;;;;4595185;19;20673;-81
2024/01/02 07:29:34;;;;;;;15.90;14.20;;;12.00;99.90;;;;;;4595583;19;20698;-82
2024/01/02 07:31:11;;;;;;;15.50;13.50;;;11.90;99.90;;;;;;4595473;19;20412;-76
2024/01/02 07:32:45;;;;;;;16.03;14.43;;;11.80;99.90;;;;;;4595001;19;20480;-77
2024/01/02 07:34:20;;;;;;;17.27;15.50;;;11.70;99.90;;;;;;4594974;19;20412;-75
2024/01/02 07:35:55;;;;;;;18.20;16.20;;;11.70;99.90;;;;;;4595021;19;20412;-75
2024/01/02 07:37:29;;;;;;;16.47;14.53;;;11.70;99.90;;;;;;4594923;19;21027;-74
2024/01/02 07:39:03;;;;;;;16.57;14.33;;;11.60;99.90;;;;;;4593883;19;20405;-80
2024/01/02 07:40:39;;;;;;;18.97;16.77;;;11.50;99.90;;;;;;4593670;19;20388;-74
2024/01/02 07:42:12;;;;;;;16.93;15.23;;;11.50;99.90;;;;;;4593433;19;20389;-75
2024/01/02 07:43:47;;;;;;;16.03;14.23;;;11.50;99.90;;;;;;4594481;19;20432;-82
2024/01/02 07:45:22;;;;;;;16.33;13.70;;;11.50;99.90;;;;;;4593524;19;20429;-74
2024/01/02 07:46:57;;;;;;;14.40;12.30;;;11.50;99.90;;;;;;4594750;19;20385;-77
2024/01/02 07:48:31;;;;;;;13.70;12.30;;;11.40;99.90;;;;;;4593579;19;20392;-79
2024/01/02 07:50:07;;;;;;;14.53;12.93;;;11.40;99.90;;;;;;4593690;19;20766;-77
2024/01/02 07:51:41;;;;;;;14.57;12.60;;;11.40;99.90;;;;;;4593450;19;20401;-81
2024/01/02 07:53:20;;;;;;;13.03;11.40;;;11.30;99.90;;;;;;4593255;19;20501;-78
2024/01/02 07:54:55;;;;;;;13.93;10.13;;;11.30;99.90;;;;;;4593486;19;20529;-80
2024/01/02 07:56:30;;;;;;;12.37;9.70;;;11.60;99.90;;;;;;4594503;19;20725;-79
2024/01/02 07:58:05;;;;;;;15.57;11.47;;;11.90;99.90;;;;;;4594818;19;20714;-78
2024/01/02 07:59:41;;;;;;;21.13;18.33;;;12.10;99.90;;;;;;4592887;19;20381;-79
2024/01/02 08:01:16;;;;;;;29.40;24.37;;;12.30;99.90;;;;;;4594332;19;20954;-78
2024/01/02 08:02:50;;;;;;;28.73;25.00;;;12.50;99.90;;;;;;4593085;19;20378;-79
2024/01/02 08:04:29;;;;;;;85.47;57.43;;;12.70;99.90;;;;;;4593903;19;20872;-79
2024/01/02 08:06:03;;;;;;;246.83;149.77;;;12.80;99.90;;;;;;4594447;19;20007;-79
2024/01/02 08:07:39;;;;;;;150.90;90.73;;;12.80;99.90;;;;;;4594449;19;20417;-79
2024/01/02 08:09:14;;;;;;;193.47;123.47;;;13.00;99.90;;;;;;4594254;19;20306;-79
2024/01/02 08:10:48;;;;;;;124.17;74.90;;;13.00;99.90;;;;;;4594156;19;20006;-79
2024/01/02 08:12:22;;;;;;;60.77;35.40;;;13.10;99.90;;;;;;4594149;19;20005;-79
2024/01/02 08:13:58;;;;;;;61.87;37.00;;;13.10;99.90;;;;;;4592784;19;20007;-79
2024/01/02 08:15:33;;;;;;;50.43;31.80;;;13.20;99.90;;;;;;4592298;19;20352;-79
2024/01/02 08:17:09;;;;;;;47.03;30.80;;;13.20;99.90;;;;;;4593104;19;20002;-79
2024/01/02 08:18:44;;;;;;;48.80;32.57;;;13.30;99.90;;;;;;4592270;19;20006;-79